Terminal Aerodrome Forecast
Issued by NWS

Home | Current Version | Previous Version | Text Only | Print | Product List | Glossary On
Versions: 1 2 3 4 5 6 7 8 9 10 11 12 13 14 15 16 17 18 19 20 21
000
FTUS45 KMSO 230500
TAFSMN
TAF
KSMN 230536Z 2306/2406 23006KT P6SM VCSH SCT120
     FM230830 23006G20KT P6SM -RA VCTS SCT080 BKN100CB
     FM231200 VRB04KT P6SM SCT120
     FM232100 22010G21KT P6SM VCSH SCT120
     FM232300 24020G27KT P6SM SCT120
      AMD LTD TO CLD VIS AND WIND=

USA.gov is the U.S. government's official web portal to all federal, state and local government web resources and services.